Airfield :
LOGIN :

Register | Disclaimer

   EN    FR    IT 

 










Legend :    VFR   Marginal VFR   IFR   Intensive IFR   Very Intensive IFR
Visi :
Ceiling :
>= 8 km
>= 3000ft
5 to 8 km
1000 to 3000 ft
1500m to 5 km
500 to 1000 ft
800 to 1500m
200 to 500 ft
< 800m
< 200 ft
Symbols :   Thunderstorms  Fog  Heavy snow  Heavy precipitations  Wind > 20 kt
SIGMETs :     Misc.  Thunderstorms  Icing  Turbulence  Mountain Waves  Volcanic Ashes






- Airport Elevation : 16 ft
- IATA code : SDR


LEXJ - Santander Cantabria

CURRENT METAR :
  • 192000Z 24016KT 200V280 CAVOK 25/06 Q1007

EXPIRED METARs :
  • 191930Z 23017G28KT 190V270 CAVOK 26/06 Q1006
  • 191900Z 24020G37KT 170V290 CAVOK 27/05 Q1005
  • 191830Z 24024G44KT 190V280 CAVOK 27/05 Q1006
  • 191800Z 23017G35KT 170V270 CAVOK 28/03 Q1006

TAF TAF LEXJ
Valid from the 19 at 21:00 until the 20 at 21:00 UTC


192000Z 1921/2021 20018KT 9999 FEW060 TX25/1921Z TN19/2004Z
TEMPO 1921/2015 23018G32KT
PROB40
TEMPO 1921/2009 23022G43KT
PROB30
TEMPO 2006/2012 VRB08KT RA
PROB30
TEMPO 2018/2021 RA



MET'MAP, your aeronautical weather chart ! - Copyright ORBIFLY December 2007 - Disclaimer

ORBIFLY MET'MAP TEAM :

Programming & Development : Alexandra Zaïnal
Concept & original design : Baudouin d'Aumeries
Assistance for programming : Marc-Olivier Méhu
Technical & hardware support : Manuel Goepfert

Contact : metmap@orbifly.com




SOURCES & CREDITS :

   NOAA